Richmond, Illinois
Current Conditions -  °F | °C
As of 5:15 PM on Wednesday 17 Dec 2014 (Local Time) from KBUU Reporting Station
Scattered Clouds Scattered Clouds  
Wind Chill: -10°   Ceiling: Unl
Heat Index: -6°   Visibility: 10mi
Dew Point: -9°   Wind: 6mph
Humidity: 80%   Direction: 310°NW
Pressure: 30.23"   Gusts: NA
Location:  42.48°N, 88.31°W
Report Text: KBUU 172315Z AUTO 31005KT 10SM SCT021 M06/M09 A3023 RMK AO2 T10591089
Loading
Personal Weather Stations






























Interactive Weather Map New forecast layout! Learn more

10-Day Weather Forecast

Advertisements
Track Severe Weather on mobile